sensor_id;sensor_type;location;lat;lon;timestamp;P1;durP1;ratioP1;P2;durP2;ratioP2
9178;SDS011;4624;48.126;11.546;2022-12-05T00:01:57;9.70;;;7.37;;
9178;SDS011;4624;48.126;11.546;2022-12-05T00:04:23;10.37;;;7.20;;
9178;SDS011;4624;48.126;11.546;2022-12-05T00:06:50;10.30;;;6.67;;
9178;SDS011;4624;48.126;11.546;2022-12-05T00:09:17;9.60;;;7.00;;
9178;SDS011;4624;48.126;11.546;2022-12-05T00:11:44;11.03;;;8.20;;
9178;SDS011;4624;48.126;11.546;2022-12-05T00:14:12;11.90;;;7.73;;
9178;SDS011;4624;48.126;11.546;2022-12-05T00:16:40;11.67;;;7.63;;
9178;SDS011;4624;48.126;11.546;2022-12-05T00:19:08;8.37;;;7.07;;
9178;SDS011;4624;48.126;11.546;2022-12-05T00:21:36;10.50;;;7.60;;
9178;SDS011;4624;48.126;11.546;2022-12-05T00:24:05;9.87;;;7.23;;
9178;SDS011;4624;48.126;11.546;2022-12-05T00:26:34;10.77;;;7.67;;
9178;SDS011;4624;48.126;11.546;2022-12-05T00:29:01;9.40;;;6.80;;
9178;SDS011;4624;48.126;11.546;2022-12-05T00:31:30;12.30;;;6.97;;
9178;SDS011;4624;48.126;11.546;2022-12-05T00:33:58;9.70;;;6.73;;
9178;SDS011;4624;48.126;11.546;2022-12-05T00:36:26;9.77;;;6.93;;
9178;SDS011;4624;48.126;11.546;2022-12-05T00:38:54;10.27;;;7.73;;
9178;SDS011;4624;48.126;11.546;2022-12-05T00:41:24;10.80;;;7.10;;
9178;SDS011;4624;48.126;11.546;2022-12-05T00:43:52;7.83;;;6.23;;
9178;SDS011;4624;48.126;11.546;2022-12-05T00:46:19;10.37;;;7.33;;
9178;SDS011;4624;48.126;11.546;2022-12-05T00:48:48;8.73;;;6.50;;
9178;SDS011;4624;48.126;11.546;2022-12-05T00:51:18;9.53;;;7.00;;
9178;SDS011;4624;48.126;11.546;2022-12-05T00:53:47;10.03;;;7.60;;
9178;SDS011;4624;48.126;11.546;2022-12-05T00:56:15;10.10;;;7.00;;
9178;SDS011;4624;48.126;11.546;2022-12-05T00:58:46;12.40;;;7.67;;
9178;SDS011;4624;48.126;11.546;2022-12-05T01:01:14;10.53;;;7.00;;
9178;SDS011;4624;48.126;11.546;2022-12-05T01:03:43;10.93;;;7.00;;
9178;SDS011;4624;48.126;11.546;2022-12-05T01:06:13;9.67;;;7.10;;
9178;SDS011;4624;48.126;11.546;2022-12-05T01:08:41;12.03;;;6.83;;
9178;SDS011;4624;48.126;11.546;2022-12-05T01:11:13;9.93;;;7.40;;
9178;SDS011;4624;48.126;11.546;2022-12-05T01:13:41;10.10;;;7.23;;
9178;SDS011;4624;48.126;11.546;2022-12-05T01:16:11;10.77;;;7.43;;
9178;SDS011;4624;48.126;11.546;2022-12-05T01:18:39;10.97;;;6.97;;
9178;SDS011;4624;48.126;11.546;2022-12-05T01:21:06;9.17;;;7.07;;
9178;SDS011;4624;48.126;11.546;2022-12-05T01:23:34;9.87;;;7.00;;
9178;SDS011;4624;48.126;11.546;2022-12-05T01:26:04;9.80;;;7.17;;
9178;SDS011;4624;48.126;11.546;2022-12-05T01:28:32;11.50;;;7.63;;
9178;SDS011;4624;48.126;11.546;2022-12-05T01:31:00;11.63;;;7.47;;
9178;SDS011;4624;48.126;11.546;2022-12-05T01:33:30;10.40;;;7.57;;
9178;SDS011;4624;48.126;11.546;2022-12-05T01:35:57;10.73;;;7.70;;
9178;SDS011;4624;48.126;11.546;2022-12-05T01:38:24;11.37;;;7.97;;
9178;SDS011;4624;48.126;11.546;2022-12-05T01:40:59;11.90;;;8.67;;
9178;SDS011;4624;48.126;11.546;2022-12-05T01:43:27;8.50;;;6.17;;
9178;SDS011;4624;48.126;11.546;2022-12-05T01:45:53;9.77;;;7.30;;
9178;SDS011;4624;48.126;11.546;2022-12-05T01:48:21;11.87;;;7.17;;
9178;SDS011;4624;48.126;11.546;2022-12-05T01:50:51;11.20;;;7.90;;
9178;SDS011;4624;48.126;11.546;2022-12-05T01:53:18;13.57;;;7.63;;
9178;SDS011;4624;48.126;11.546;2022-12-05T01:55:45;11.77;;;8.10;;
9178;SDS011;4624;48.126;11.546;2022-12-05T01:58:15;11.87;;;8.30;;
9178;SDS011;4624;48.126;11.546;2022-12-05T02:00:42;11.87;;;7.80;;
9178;SDS011;4624;48.126;11.546;2022-12-05T02:03:10;11.27;;;8.27;;
9178;SDS011;4624;48.126;11.546;2022-12-05T02:05:43;10.53;;;7.87;;
9178;SDS011;4624;48.126;11.546;2022-12-05T02:08:13;13.20;;;8.77;;
9178;SDS011;4624;48.126;11.546;2022-12-05T02:10:41;11.40;;;7.90;;
9178;SDS011;4624;48.126;11.546;2022-12-05T02:13:12;13.10;;;8.80;;
9178;SDS011;4624;48.126;11.546;2022-12-05T02:15:55;10.87;;;7.37;;
9178;SDS011;4624;48.126;11.546;2022-12-05T02:18:29;13.33;;;8.70;;
9178;SDS011;4624;48.126;11.546;2022-12-05T02:21:08;10.93;;;7.60;;
9178;SDS011;4624;48.126;11.546;2022-12-05T02:24:16;11.23;;;8.13;;
9178;SDS011;4624;48.126;11.546;2022-12-05T02:27:03;11.30;;;8.33;;
9178;SDS011;4624;48.126;11.546;2022-12-05T02:29:50;10.17;;;7.80;;
9178;SDS011;4624;48.126;11.546;2022-12-05T02:32:24;12.20;;;8.93;;
9178;SDS011;4624;48.126;11.546;2022-12-05T02:35:03;11.60;;;8.10;;
9178;SDS011;4624;48.126;11.546;2022-12-05T02:37:39;10.87;;;7.50;;
9178;SDS011;4624;48.126;11.546;2022-12-05T02:40:09;10.67;;;8.13;;
9178;SDS011;4624;48.126;11.546;2022-12-05T02:42:42;9.43;;;7.43;;
9178;SDS011;4624;48.126;11.546;2022-12-05T02:45:15;11.93;;;7.93;;
9178;SDS011;4624;48.126;11.546;2022-12-05T02:47:46;9.80;;;7.40;;
9178;SDS011;4624;48.126;11.546;2022-12-05T02:50:16;11.07;;;7.70;;
9178;SDS011;4624;48.126;11.546;2022-12-05T02:52:46;9.20;;;7.57;;
9178;SDS011;4624;48.126;11.546;2022-12-05T02:55:14;10.27;;;7.47;;
9178;SDS011;4624;48.126;11.546;2022-12-05T02:57:44;9.87;;;7.47;;
9178;SDS011;4624;48.126;11.546;2022-12-05T03:00:17;11.33;;;8.20;;
9178;SDS011;4624;48.126;11.546;2022-12-05T03:02:44;9.87;;;7.47;;
9178;SDS011;4624;48.126;11.546;2022-12-05T03:05:13;12.03;;;8.77;;
9178;SDS011;4624;48.126;11.546;2022-12-05T03:07:46;11.53;;;7.63;;
9178;SDS011;4624;48.126;11.546;2022-12-05T03:10:17;11.17;;;7.27;;
9178;SDS011;4624;48.126;11.546;2022-12-05T03:12:47;9.67;;;7.10;;
9178;SDS011;4624;48.126;11.546;2022-12-05T03:15:18;11.17;;;8.10;;
9178;SDS011;4624;48.126;11.546;2022-12-05T03:17:49;11.53;;;8.13;;
9178;SDS011;4624;48.126;11.546;2022-12-05T03:20:19;11.17;;;8.07;;
9178;SDS011;4624;48.126;11.546;2022-12-05T03:22:52;11.63;;;7.07;;
9178;SDS011;4624;48.126;11.546;2022-12-05T03:25:27;11.60;;;7.43;;
9178;SDS011;4624;48.126;11.546;2022-12-05T03:28:01;13.20;;;8.83;;
9178;SDS011;4624;48.126;11.546;2022-12-05T03:30:33;10.77;;;7.33;;
9178;SDS011;4624;48.126;11.546;2022-12-05T03:33:04;10.07;;;7.67;;
9178;SDS011;4624;48.126;11.546;2022-12-05T03:35:38;10.93;;;7.73;;
9178;SDS011;4624;48.126;11.546;2022-12-05T03:38:10;10.60;;;7.60;;
9178;SDS011;4624;48.126;11.546;2022-12-05T03:40:39;11.87;;;7.53;;
9178;SDS011;4624;48.126;11.546;2022-12-05T03:43:13;11.97;;;7.93;;
9178;SDS011;4624;48.126;11.546;2022-12-05T03:45:46;11.40;;;7.80;;
9178;SDS011;4624;48.126;11.546;2022-12-05T03:48:16;8.53;;;6.93;;
9178;SDS011;4624;48.126;11.546;2022-12-05T03:50:49;9.70;;;7.10;;
9178;SDS011;4624;48.126;11.546;2022-12-05T03:53:18;9.33;;;6.83;;
9178;SDS011;4624;48.126;11.546;2022-12-05T03:55:53;9.87;;;7.20;;
9178;SDS011;4624;48.126;11.546;2022-12-05T03:58:25;8.77;;;6.53;;
9178;SDS011;4624;48.126;11.546;2022-12-05T04:00:57;9.97;;;7.10;;
9178;SDS011;4624;48.126;11.546;2022-12-05T04:03:27;10.20;;;7.27;;
9178;SDS011;4624;48.126;11.546;2022-12-05T04:06:03;10.93;;;7.33;;
9178;SDS011;4624;48.126;11.546;2022-12-05T04:08:38;9.10;;;7.20;;
9178;SDS011;4624;48.126;11.546;2022-12-05T04:11:10;10.07;;;7.57;;
9178;SDS011;4624;48.126;11.546;2022-12-05T04:13:41;9.23;;;7.03;;
9178;SDS011;4624;48.126;11.546;2022-12-05T04:16:13;9.37;;;6.63;;
9178;SDS011;4624;48.126;11.546;2022-12-05T04:19:02;9.43;;;7.27;;
9178;SDS011;4624;48.126;11.546;2022-12-05T04:21:34;9.57;;;7.37;;
9178;SDS011;4624;48.126;11.546;2022-12-05T04:24:06;10.90;;;7.97;;
9178;SDS011;4624;48.126;11.546;2022-12-05T04:26:57;9.27;;;7.30;;
9178;SDS011;4624;48.126;11.546;2022-12-05T04:29:36;9.80;;;7.47;;
9178;SDS011;4624;48.126;11.546;2022-12-05T04:32:12;8.93;;;6.83;;
9178;SDS011;4624;48.126;11.546;2022-12-05T04:34:40;9.13;;;7.13;;
9178;SDS011;4624;48.126;11.546;2022-12-05T04:37:12;8.83;;;6.73;;
9178;SDS011;4624;48.126;11.546;2022-12-05T04:39:46;11.10;;;7.47;;
9178;SDS011;4624;48.126;11.546;2022-12-05T04:42:18;11.07;;;7.30;;
9178;SDS011;4624;48.126;11.546;2022-12-05T04:44:48;9.37;;;6.93;;
9178;SDS011;4624;48.126;11.546;2022-12-05T04:47:19;10.07;;;6.77;;
9178;SDS011;4624;48.126;11.546;2022-12-05T04:49:51;9.17;;;6.67;;
9178;SDS011;4624;48.126;11.546;2022-12-05T04:52:19;10.57;;;7.93;;
9178;SDS011;4624;48.126;11.546;2022-12-05T04:54:48;10.10;;;7.27;;
9178;SDS011;4624;48.126;11.546;2022-12-05T04:57:18;10.20;;;6.93;;
9178;SDS011;4624;48.126;11.546;2022-12-05T04:59:48;10.20;;;6.97;;
9178;SDS011;4624;48.126;11.546;2022-12-05T05:02:16;10.40;;;7.00;;
9178;SDS011;4624;48.126;11.546;2022-12-05T05:04:48;8.37;;;6.30;;
9178;SDS011;4624;48.126;11.546;2022-12-05T05:07:18;11.50;;;7.70;;
9178;SDS011;4624;48.126;11.546;2022-12-05T05:09:45;10.03;;;7.60;;
9178;SDS011;4624;48.126;11.546;2022-12-05T05:12:12;11.43;;;7.47;;
9178;SDS011;4624;48.126;11.546;2022-12-05T05:14:39;11.00;;;7.20;;
9178;SDS011;4624;48.126;11.546;2022-12-05T05:17:06;10.47;;;7.63;;
9178;SDS011;4624;48.126;11.546;2022-12-05T05:19:34;11.33;;;7.93;;
9178;SDS011;4624;48.126;11.546;2022-12-05T05:22:00;12.27;;;8.07;;
9178;SDS011;4624;48.126;11.546;2022-12-05T05:24:27;10.80;;;7.67;;
9178;SDS011;4624;48.126;11.546;2022-12-05T05:26:54;10.43;;;7.07;;
9178;SDS011;4624;48.126;11.546;2022-12-05T05:29:21;11.60;;;7.53;;
9178;SDS011;4624;48.126;11.546;2022-12-05T05:31:47;12.07;;;7.70;;
9178;SDS011;4624;48.126;11.546;2022-12-05T05:34:14;12.33;;;8.27;;
9178;SDS011;4624;48.126;11.546;2022-12-05T05:36:42;11.17;;;6.90;;
9178;SDS011;4624;48.126;11.546;2022-12-05T05:39:10;14.83;;;8.60;;
9178;SDS011;4624;48.126;11.546;2022-12-05T05:41:38;13.37;;;7.87;;
9178;SDS011;4624;48.126;11.546;2022-12-05T05:44:06;13.20;;;7.77;;
9178;SDS011;4624;48.126;11.546;2022-12-05T05:46:33;11.43;;;7.83;;
9178;SDS011;4624;48.126;11.546;2022-12-05T05:49:01;12.27;;;7.73;;
9178;SDS011;4624;48.126;11.546;2022-12-05T05:51:28;10.87;;;7.80;;
9178;SDS011;4624;48.126;11.546;2022-12-05T05:53:57;12.87;;;8.30;;
9178;SDS011;4624;48.126;11.546;2022-12-05T05:56:25;11.47;;;7.33;;
9178;SDS011;4624;48.126;11.546;2022-12-05T05:58:55;12.27;;;8.00;;
9178;SDS011;4624;48.126;11.546;2022-12-05T06:01:24;15.33;;;8.07;;
9178;SDS011;4624;48.126;11.546;2022-12-05T06:03:51;11.27;;;7.50;;
9178;SDS011;4624;48.126;11.546;2022-12-05T06:06:19;11.53;;;8.33;;
9178;SDS011;4624;48.126;11.546;2022-12-05T06:08:46;14.83;;;8.17;;
9178;SDS011;4624;48.126;11.546;2022-12-05T06:11:15;11.53;;;8.40;;
9178;SDS011;4624;48.126;11.546;2022-12-05T06:13:43;11.77;;;7.73;;
9178;SDS011;4624;48.126;11.546;2022-12-05T06:16:11;10.93;;;7.40;;
9178;SDS011;4624;48.126;11.546;2022-12-05T06:18:39;12.80;;;8.40;;
9178;SDS011;4624;48.126;11.546;2022-12-05T06:21:05;11.70;;;8.13;;
9178;SDS011;4624;48.126;11.546;2022-12-05T06:23:33;11.83;;;7.70;;
9178;SDS011;4624;48.126;11.546;2022-12-05T06:26:00;12.63;;;7.63;;
9178;SDS011;4624;48.126;11.546;2022-12-05T06:28:29;14.73;;;8.40;;
9178;SDS011;4624;48.126;11.546;2022-12-05T06:30:56;12.37;;;8.47;;
9178;SDS011;4624;48.126;11.546;2022-12-05T06:33:23;10.47;;;7.30;;
9178;SDS011;4624;48.126;11.546;2022-12-05T06:36:00;16.17;;;8.80;;
9178;SDS011;4624;48.126;11.546;2022-12-05T06:38:28;10.47;;;6.90;;
9178;SDS011;4624;48.126;11.546;2022-12-05T06:40:54;12.23;;;7.97;;
9178;SDS011;4624;48.126;11.546;2022-12-05T06:43:21;11.43;;;8.30;;
9178;SDS011;4624;48.126;11.546;2022-12-05T06:45:49;11.20;;;7.67;;
9178;SDS011;4624;48.126;11.546;2022-12-05T06:48:16;11.90;;;9.40;;
9178;SDS011;4624;48.126;11.546;2022-12-05T06:50:46;9.60;;;7.33;;
9178;SDS011;4624;48.126;11.546;2022-12-05T06:53:14;11.97;;;6.83;;
9178;SDS011;4624;48.126;11.546;2022-12-05T06:55:41;10.53;;;7.50;;
9178;SDS011;4624;48.126;11.546;2022-12-05T06:58:08;13.07;;;7.53;;
9178;SDS011;4624;48.126;11.546;2022-12-05T07:00:34;11.20;;;7.60;;
9178;SDS011;4624;48.126;11.546;2022-12-05T07:03:20;10.27;;;7.37;;
9178;SDS011;4624;48.126;11.546;2022-12-05T07:05:47;11.03;;;7.53;;
9178;SDS011;4624;48.126;11.546;2022-12-05T07:08:14;13.77;;;7.63;;
9178;SDS011;4624;48.126;11.546;2022-12-05T07:10:40;14.40;;;7.93;;
9178;SDS011;4624;48.126;11.546;2022-12-05T07:13:07;9.63;;;7.57;;
9178;SDS011;4624;48.126;11.546;2022-12-05T07:15:35;9.53;;;7.00;;
9178;SDS011;4624;48.126;11.546;2022-12-05T07:18:02;9.47;;;7.27;;
9178;SDS011;4624;48.126;11.546;2022-12-05T07:20:30;12.70;;;8.17;;
9178;SDS011;4624;48.126;11.546;2022-12-05T07:22:57;11.40;;;8.23;;
9178;SDS011;4624;48.126;11.546;2022-12-05T07:25:24;10.43;;;7.43;;
9178;SDS011;4624;48.126;11.546;2022-12-05T07:27:51;10.00;;;6.97;;
9178;SDS011;4624;48.126;11.546;2022-12-05T07:30:17;9.10;;;6.87;;
9178;SDS011;4624;48.126;11.546;2022-12-05T07:32:44;8.53;;;6.47;;
9178;SDS011;4624;48.126;11.546;2022-12-05T07:35:11;9.37;;;7.23;;
9178;SDS011;4624;48.126;11.546;2022-12-05T07:37:39;10.00;;;6.80;;
9178;SDS011;4624;48.126;11.546;2022-12-05T07:40:06;8.00;;;5.80;;
9178;SDS011;4624;48.126;11.546;2022-12-05T07:42:35;10.53;;;7.00;;
9178;SDS011;4624;48.126;11.546;2022-12-05T07:45:01;9.53;;;7.00;;
9178;SDS011;4624;48.126;11.546;2022-12-05T07:47:29;9.93;;;6.80;;
9178;SDS011;4624;48.126;11.546;2022-12-05T07:49:56;9.13;;;6.87;;
9178;SDS011;4624;48.126;11.546;2022-12-05T07:52:22;8.10;;;6.70;;
9178;SDS011;4624;48.126;11.546;2022-12-05T07:54:50;8.60;;;6.67;;
9178;SDS011;4624;48.126;11.546;2022-12-05T07:57:17;9.47;;;6.50;;
9178;SDS011;4624;48.126;11.546;2022-12-05T07:59:44;9.07;;;6.73;;
9178;SDS011;4624;48.126;11.546;2022-12-05T08:02:11;9.53;;;6.83;;
9178;SDS011;4624;48.126;11.546;2022-12-05T08:04:37;10.10;;;7.30;;
9178;SDS011;4624;48.126;11.546;2022-12-05T08:07:04;11.33;;;7.00;;
9178;SDS011;4624;48.126;11.546;2022-12-05T08:09:31;12.80;;;7.80;;
9178;SDS011;4624;48.126;11.546;2022-12-05T08:11:59;9.93;;;6.77;;
9178;SDS011;4624;48.126;11.546;2022-12-05T08:14:26;10.57;;;7.17;;
9178;SDS011;4624;48.126;11.546;2022-12-05T08:16:53;10.57;;;6.93;;
9178;SDS011;4624;48.126;11.546;2022-12-05T08:19:20;9.93;;;7.30;;
9178;SDS011;4624;48.126;11.546;2022-12-05T08:21:46;9.73;;;7.20;;
9178;SDS011;4624;48.126;11.546;2022-12-05T08:24:13;7.97;;;5.60;;
9178;SDS011;4624;48.126;11.546;2022-12-05T08:26:40;9.07;;;7.13;;
9178;SDS011;4624;48.126;11.546;2022-12-05T08:29:09;9.10;;;7.17;;
9178;SDS011;4624;48.126;11.546;2022-12-05T08:31:38;7.83;;;6.27;;
9178;SDS011;4624;48.126;11.546;2022-12-05T08:34:06;9.73;;;6.77;;
9178;SDS011;4624;48.126;11.546;2022-12-05T08:36:32;8.03;;;6.70;;
9178;SDS011;4624;48.126;11.546;2022-12-05T08:39:00;8.83;;;6.83;;
9178;SDS011;4624;48.126;11.546;2022-12-05T08:41:29;8.43;;;7.03;;
9178;SDS011;4624;48.126;11.546;2022-12-05T08:43:57;7.50;;;6.47;;
9178;SDS011;4624;48.126;11.546;2022-12-05T08:46:26;9.77;;;7.27;;
9178;SDS011;4624;48.126;11.546;2022-12-05T08:48:53;8.30;;;7.00;;
9178;SDS011;4624;48.126;11.546;2022-12-05T08:51:20;7.97;;;6.50;;
9178;SDS011;4624;48.126;11.546;2022-12-05T08:53:47;9.53;;;6.97;;
9178;SDS011;4624;48.126;11.546;2022-12-05T08:56:14;8.20;;;6.60;;
9178;SDS011;4624;48.126;11.546;2022-12-05T08:58:41;10.80;;;6.93;;
9178;SDS011;4624;48.126;11.546;2022-12-05T09:01:08;7.90;;;6.37;;
9178;SDS011;4624;48.126;11.546;2022-12-05T09:03:38;8.70;;;6.60;;
9178;SDS011;4624;48.126;11.546;2022-12-05T09:06:05;8.27;;;6.63;;
9178;SDS011;4624;48.126;11.546;2022-12-05T09:08:33;8.97;;;6.67;;
9178;SDS011;4624;48.126;11.546;2022-12-05T09:11:03;7.97;;;6.73;;
9178;SDS011;4624;48.126;11.546;2022-12-05T09:13:30;8.20;;;6.10;;
9178;SDS011;4624;48.126;11.546;2022-12-05T09:15:57;10.77;;;6.03;;
9178;SDS011;4624;48.126;11.546;2022-12-05T09:18:24;7.43;;;6.13;;
9178;SDS011;4624;48.126;11.546;2022-12-05T09:20:52;7.70;;;5.70;;
9178;SDS011;4624;48.126;11.546;2022-12-05T09:23:19;8.07;;;6.37;;
9178;SDS011;4624;48.126;11.546;2022-12-05T09:25:51;7.33;;;5.73;;
9178;SDS011;4624;48.126;11.546;2022-12-05T09:28:20;7.43;;;5.27;;
9178;SDS011;4624;48.126;11.546;2022-12-05T09:30:54;7.33;;;5.90;;
9178;SDS011;4624;48.126;11.546;2022-12-05T09:33:21;6.93;;;5.70;;
9178;SDS011;4624;48.126;11.546;2022-12-05T09:35:48;8.50;;;6.00;;
9178;SDS011;4624;48.126;11.546;2022-12-05T09:38:16;7.30;;;6.20;;
9178;SDS011;4624;48.126;11.546;2022-12-05T09:40:43;7.23;;;6.13;;
9178;SDS011;4624;48.126;11.546;2022-12-05T09:43:13;7.27;;;5.90;;
9178;SDS011;4624;48.126;11.546;2022-12-05T09:45:49;6.87;;;6.00;;
9178;SDS011;4624;48.126;11.546;2022-12-05T09:48:22;7.50;;;6.20;;
9178;SDS011;4624;48.126;11.546;2022-12-05T09:50:51;7.07;;;6.03;;
9178;SDS011;4624;48.126;11.546;2022-12-05T09:53:23;6.93;;;6.23;;
9178;SDS011;4624;48.126;11.546;2022-12-05T09:55:53;6.60;;;5.87;;
9178;SDS011;4624;48.126;11.546;2022-12-05T09:58:26;8.40;;;6.10;;
9178;SDS011;4624;48.126;11.546;2022-12-05T10:00:58;7.50;;;6.00;;
9178;SDS011;4624;48.126;11.546;2022-12-05T10:03:30;8.00;;;6.57;;
9178;SDS011;4624;48.126;11.546;2022-12-05T10:06:06;10.03;;;6.37;;
9178;SDS011;4624;48.126;11.546;2022-12-05T10:08:41;8.17;;;5.87;;
9178;SDS011;4624;48.126;11.546;2022-12-05T10:11:24;8.00;;;6.53;;
9178;SDS011;4624;48.126;11.546;2022-12-05T10:14:00;8.73;;;6.30;;
9178;SDS011;4624;48.126;11.546;2022-12-05T10:16:35;6.53;;;5.83;;
9178;SDS011;4624;48.126;11.546;2022-12-05T10:19:09;7.00;;;6.27;;
9178;SDS011;4624;48.126;11.546;2022-12-05T10:21:39;7.17;;;5.77;;
9178;SDS011;4624;48.126;11.546;2022-12-05T10:24:14;7.63;;;5.90;;
9178;SDS011;4624;48.126;11.546;2022-12-05T10:26:48;8.13;;;6.57;;
9178;SDS011;4624;48.126;11.546;2022-12-05T10:29:22;10.80;;;6.50;;
9178;SDS011;4624;48.126;11.546;2022-12-05T10:31:53;8.20;;;6.43;;
9178;SDS011;4624;48.126;11.546;2022-12-05T10:34:28;8.73;;;7.00;;
9178;SDS011;4624;48.126;11.546;2022-12-05T10:37:00;7.53;;;6.03;;
9178;SDS011;4624;48.126;11.546;2022-12-05T10:42:03;8.10;;;6.37;;
9178;SDS011;4624;48.126;11.546;2022-12-05T10:44:31;7.43;;;5.83;;
9178;SDS011;4624;48.126;11.546;2022-12-05T10:46:59;7.50;;;6.00;;
9178;SDS011;4624;48.126;11.546;2022-12-05T10:49:26;9.20;;;6.63;;
9178;SDS011;4624;48.126;11.546;2022-12-05T10:51:54;8.50;;;6.50;;
9178;SDS011;4624;48.126;11.546;2022-12-05T10:54:22;9.30;;;6.70;;
9178;SDS011;4624;48.126;11.546;2022-12-05T10:56:53;8.53;;;6.73;;
9178;SDS011;4624;48.126;11.546;2022-12-05T10:59:21;7.50;;;6.33;;
9178;SDS011;4624;48.126;11.546;2022-12-05T11:01:50;9.27;;;6.70;;
9178;SDS011;4624;48.126;11.546;2022-12-05T11:04:19;7.53;;;6.47;;
9178;SDS011;4624;48.126;11.546;2022-12-05T11:06:49;8.50;;;6.97;;
9178;SDS011;4624;48.126;11.546;2022-12-05T11:09:19;8.70;;;6.97;;
9178;SDS011;4624;48.126;11.546;2022-12-05T11:11:57;7.87;;;7.07;;
9178;SDS011;4624;48.126;11.546;2022-12-05T11:14:28;7.43;;;5.97;;
9178;SDS011;4624;48.126;11.546;2022-12-05T11:16:58;8.50;;;6.13;;
9178;SDS011;4624;48.126;11.546;2022-12-05T11:19:27;7.77;;;6.43;;
9178;SDS011;4624;48.126;11.546;2022-12-05T11:21:56;9.47;;;6.87;;
9178;SDS011;4624;48.126;11.546;2022-12-05T11:24:25;8.67;;;6.23;;
9178;SDS011;4624;48.126;11.546;2022-12-05T11:26:53;8.50;;;6.60;;
9178;SDS011;4624;48.126;11.546;2022-12-05T11:29:29;7.63;;;5.83;;
9178;SDS011;4624;48.126;11.546;2022-12-05T11:31:57;8.10;;;6.63;;
9178;SDS011;4624;48.126;11.546;2022-12-05T11:34:25;6.23;;;5.60;;
9178;SDS011;4624;48.126;11.546;2022-12-05T11:36:57;7.67;;;5.87;;
9178;SDS011;4624;48.126;11.546;2022-12-05T11:39:28;7.30;;;6.03;;
9178;SDS011;4624;48.126;11.546;2022-12-05T11:42:01;6.97;;;5.60;;
9178;SDS011;4624;48.126;11.546;2022-12-05T11:44:48;8.17;;;6.10;;
9178;SDS011;4624;48.126;11.546;2022-12-05T11:47:32;7.57;;;5.50;;
9178;SDS011;4624;48.126;11.546;2022-12-05T11:50:13;8.63;;;6.13;;
9178;SDS011;4624;48.126;11.546;2022-12-05T11:52:50;7.50;;;6.07;;
9178;SDS011;4624;48.126;11.546;2022-12-05T11:55:24;6.50;;;5.43;;
9178;SDS011;4624;48.126;11.546;2022-12-05T12:00:53;6.43;;;5.73;;
9178;SDS011;4624;48.126;11.546;2022-12-05T12:03:34;8.97;;;6.23;;
9178;SDS011;4624;48.126;11.546;2022-12-05T12:06:19;7.93;;;5.70;;
9178;SDS011;4624;48.126;11.546;2022-12-05T12:08:56;7.30;;;6.33;;
9178;SDS011;4624;48.126;11.546;2022-12-05T12:11:39;7.10;;;5.77;;
9178;SDS011;4624;48.126;11.546;2022-12-05T12:14:12;6.33;;;5.57;;
9178;SDS011;4624;48.126;11.546;2022-12-05T12:16:48;9.07;;;6.00;;
9178;SDS011;4624;48.126;11.546;2022-12-05T12:19:25;8.53;;;5.37;;
9178;SDS011;4624;48.126;11.546;2022-12-05T12:22:11;8.23;;;6.07;;
9178;SDS011;4624;48.126;11.546;2022-12-05T12:24:53;6.17;;;4.67;;
9178;SDS011;4624;48.126;11.546;2022-12-05T12:27:36;5.40;;;4.60;;
9178;SDS011;4624;48.126;11.546;2022-12-05T12:30:19;5.57;;;4.53;;
9178;SDS011;4624;48.126;11.546;2022-12-05T12:32:52;8.03;;;4.57;;
9178;SDS011;4624;48.126;11.546;2022-12-05T12:35:28;7.10;;;5.17;;
9178;SDS011;4624;48.126;11.546;2022-12-05T12:38:02;5.40;;;4.33;;
9178;SDS011;4624;48.126;11.546;2022-12-05T12:40:53;5.73;;;4.37;;
9178;SDS011;4624;48.126;11.546;2022-12-05T12:43:27;7.63;;;5.70;;
9178;SDS011;4624;48.126;11.546;2022-12-05T12:46:08;6.07;;;4.10;;
9178;SDS011;4624;48.126;11.546;2022-12-05T12:48:53;5.13;;;4.30;;
9178;SDS011;4624;48.126;11.546;2022-12-05T12:51:30;4.40;;;4.00;;
9178;SDS011;4624;48.126;11.546;2022-12-05T12:54:03;5.90;;;3.73;;
9178;SDS011;4624;48.126;11.546;2022-12-05T12:56:45;5.03;;;3.33;;
9178;SDS011;4624;48.126;11.546;2022-12-05T12:59:25;3.90;;;3.40;;
9178;SDS011;4624;48.126;11.546;2022-12-05T13:02:07;4.03;;;3.60;;
9178;SDS011;4624;48.126;11.546;2022-12-05T13:04:45;5.23;;;3.70;;
9178;SDS011;4624;48.126;11.546;2022-12-05T13:07:14;6.87;;;3.87;;
9178;SDS011;4624;48.126;11.546;2022-12-05T13:09:45;3.73;;;3.20;;
9178;SDS011;4624;48.126;11.546;2022-12-05T13:12:19;3.27;;;2.80;;
9178;SDS011;4624;48.126;11.546;2022-12-05T13:14:50;2.63;;;2.43;;
9178;SDS011;4624;48.126;11.546;2022-12-05T13:17:22;4.47;;;2.50;;
9178;SDS011;4624;48.126;11.546;2022-12-05T13:19:51;3.00;;;2.63;;
9178;SDS011;4624;48.126;11.546;2022-12-05T13:22:19;2.50;;;2.07;;
9178;SDS011;4624;48.126;11.546;2022-12-05T13:24:48;2.43;;;2.23;;
9178;SDS011;4624;48.126;11.546;2022-12-05T13:27:17;2.97;;;2.17;;
9178;SDS011;4624;48.126;11.546;2022-12-05T13:29:47;2.40;;;2.20;;
9178;SDS011;4624;48.126;11.546;2022-12-05T13:32:28;3.97;;;2.00;;
9178;SDS011;4624;48.126;11.546;2022-12-05T13:34:58;2.70;;;2.20;;
9178;SDS011;4624;48.126;11.546;2022-12-05T13:37:27;2.00;;;1.80;;
9178;SDS011;4624;48.126;11.546;2022-12-05T13:40:23;2.30;;;2.10;;
9178;SDS011;4624;48.126;11.546;2022-12-05T13:43:11;1.73;;;1.63;;
9178;SDS011;4624;48.126;11.546;2022-12-05T13:45:41;1.50;;;1.37;;
9178;SDS011;4624;48.126;11.546;2022-12-05T13:48:20;1.67;;;1.57;;
9178;SDS011;4624;48.126;11.546;2022-12-05T13:50:51;1.70;;;1.60;;
9178;SDS011;4624;48.126;11.546;2022-12-05T13:53:27;1.80;;;1.20;;
9178;SDS011;4624;48.126;11.546;2022-12-05T13:56:01;2.43;;;1.73;;
9178;SDS011;4624;48.126;11.546;2022-12-05T13:58:36;2.40;;;1.60;;
9178;SDS011;4624;48.126;11.546;2022-12-05T14:07:13;1.70;;;1.60;;
9178;SDS011;4624;48.126;11.546;2022-12-05T14:10:04;2.10;;;1.50;;
9178;SDS011;4624;48.126;11.546;2022-12-05T14:12:46;2.50;;;1.77;;
9178;SDS011;4624;48.126;11.546;2022-12-05T14:15:30;1.80;;;1.70;;
9178;SDS011;4624;48.126;11.546;2022-12-05T14:18:00;1.80;;;1.70;;
9178;SDS011;4624;48.126;11.546;2022-12-05T14:23:20;1.50;;;1.40;;
9178;SDS011;4624;48.126;11.546;2022-12-05T14:26:27;4.73;;;1.87;;
9178;SDS011;4624;48.126;11.546;2022-12-05T14:29:21;2.53;;;1.90;;
9178;SDS011;4624;48.126;11.546;2022-12-05T14:32:04;2.10;;;1.90;;
9178;SDS011;4624;48.126;11.546;2022-12-05T14:34:50;3.63;;;1.73;;
9178;SDS011;4624;48.126;11.546;2022-12-05T14:37:23;2.47;;;2.27;;
9178;SDS011;4624;48.126;11.546;2022-12-05T14:39:54;2.27;;;2.00;;
9178;SDS011;4624;48.126;11.546;2022-12-05T14:42:25;2.10;;;1.90;;
9178;SDS011;4624;48.126;11.546;2022-12-05T14:44:57;1.90;;;1.80;;
9178;SDS011;4624;48.126;11.546;2022-12-05T14:47:28;2.87;;;1.50;;
9178;SDS011;4624;48.126;11.546;2022-12-05T14:49:58;2.07;;;1.80;;
9178;SDS011;4624;48.126;11.546;2022-12-05T14:52:28;2.77;;;1.87;;
9178;SDS011;4624;48.126;11.546;2022-12-05T14:55:00;4.30;;;3.63;;
9178;SDS011;4624;48.126;11.546;2022-12-05T14:57:30;3.43;;;2.53;;
9178;SDS011;4624;48.126;11.546;2022-12-05T15:00:01;3.30;;;3.00;;
9178;SDS011;4624;48.126;11.546;2022-12-05T15:02:32;3.53;;;3.23;;
9178;SDS011;4624;48.126;11.546;2022-12-05T15:05:06;3.23;;;2.93;;
9178;SDS011;4624;48.126;11.546;2022-12-05T15:07:46;2.63;;;2.10;;
9178;SDS011;4624;48.126;11.546;2022-12-05T15:10:18;2.40;;;2.20;;
9178;SDS011;4624;48.126;11.546;2022-12-05T15:12:48;2.03;;;1.83;;
9178;SDS011;4624;48.126;11.546;2022-12-05T15:15:18;1.83;;;1.73;;
9178;SDS011;4624;48.126;11.546;2022-12-05T15:17:51;1.80;;;1.70;;
9178;SDS011;4624;48.126;11.546;2022-12-05T15:20:24;2.57;;;2.00;;
9178;SDS011;4624;48.126;11.546;2022-12-05T15:22:56;1.93;;;1.67;;
9178;SDS011;4624;48.126;11.546;2022-12-05T15:25:26;1.63;;;1.37;;
9178;SDS011;4624;48.126;11.546;2022-12-05T15:27:58;1.90;;;1.33;;
9178;SDS011;4624;48.126;11.546;2022-12-05T15:30:27;2.50;;;2.03;;
9178;SDS011;4624;48.126;11.546;2022-12-05T15:32:56;2.10;;;1.90;;
9178;SDS011;4624;48.126;11.546;2022-12-05T15:35:24;2.37;;;1.57;;